sensor_id;sensor_type;location;lat;lon;timestamp;pressure;altitude;pressure_sealevel;temperature;humidity
59154;BME280;44935;48.944;9.418;2022-07-23T00:01:50;98645.07;;;24.81;38.38
59154;BME280;44935;48.944;9.418;2022-07-23T00:04:17;98641.26;;;25.14;37.78
59154;BME280;44935;48.944;9.418;2022-07-23T00:06:44;98635.38;;;25.02;37.32
59154;BME280;44935;48.944;9.418;2022-07-23T00:09:11;98633.15;;;24.80;37.21
59154;BME280;44935;48.944;9.418;2022-07-23T00:11:38;98632.01;;;24.47;37.08
59154;BME280;44935;48.944;9.418;2022-07-23T00:14:04;98637.19;;;24.38;37.64
59154;BME280;44935;48.944;9.418;2022-07-23T00:16:31;98641.25;;;24.13;37.49
59154;BME280;44935;48.944;9.418;2022-07-23T00:18:58;98630.54;;;24.11;37.87
59154;BME280;44935;48.944;9.418;2022-07-23T00:21:25;98621.81;;;24.80;36.72
59154;BME280;44935;48.944;9.418;2022-07-23T00:23:52;98611.09;;;24.90;35.94
59154;BME280;44935;48.944;9.418;2022-07-23T00:26:19;98606.76;;;25.46;35.09
59154;BME280;44935;48.944;9.418;2022-07-23T00:28:46;98612.20;;;24.86;35.81
59154;BME280;44935;48.944;9.418;2022-07-23T00:31:13;98614.31;;;24.62;36.62
59154;BME280;44935;48.944;9.418;2022-07-23T00:33:40;98607.88;;;24.61;36.08
59154;BME280;44935;48.944;9.418;2022-07-23T00:36:07;98603.39;;;24.58;36.18
59154;BME280;44935;48.944;9.418;2022-07-23T00:38:34;98594.88;;;24.55;36.21
59154;BME280;44935;48.944;9.418;2022-07-23T00:41:02;98589.02;;;25.15;35.61
59154;BME280;44935;48.944;9.418;2022-07-23T00:43:28;98592.23;;;25.22;35.18
59154;BME280;44935;48.944;9.418;2022-07-23T00:45:55;98587.03;;;25.37;35.17
59154;BME280;44935;48.944;9.418;2022-07-23T00:48:22;98592.57;;;24.00;36.96
59154;BME280;44935;48.944;9.418;2022-07-23T00:50:49;98594.99;;;25.26;35.46
59154;BME280;44935;48.944;9.418;2022-07-23T00:53:16;98592.38;;;25.51;35.12
59154;BME280;44935;48.944;9.418;2022-07-23T00:55:44;98589.96;;;25.54;34.80
59154;BME280;44935;48.944;9.418;2022-07-23T00:58:11;98591.36;;;25.54;34.91
59154;BME280;44935;48.944;9.418;2022-07-23T01:00:39;98585.25;;;25.75;34.39
59154;BME280;44935;48.944;9.418;2022-07-23T01:03:06;98594.15;;;25.40;35.15
59154;BME280;44935;48.944;9.418;2022-07-23T01:05:34;98596.59;;;25.54;35.01
59154;BME280;44935;48.944;9.418;2022-07-23T01:08:01;98601.99;;;25.14;35.52
59154;BME280;44935;48.944;9.418;2022-07-23T01:10:28;98593.23;;;24.98;35.43
59154;BME280;44935;48.944;9.418;2022-07-23T01:12:55;98582.91;;;25.72;35.54
59154;BME280;44935;48.944;9.418;2022-07-23T01:15:22;98593.41;;;25.74;34.52
59154;BME280;44935;48.944;9.418;2022-07-23T01:17:49;98597.94;;;25.68;35.07
59154;BME280;44935;48.944;9.418;2022-07-23T01:20:16;98580.93;;;25.82;35.66
59154;BME280;44935;48.944;9.418;2022-07-23T01:22:45;98577.03;;;24.73;36.38
59154;BME280;44935;48.944;9.418;2022-07-23T01:25:12;98583.85;;;26.29;34.47
59154;BME280;44935;48.944;9.418;2022-07-23T01:27:39;98589.85;;;26.60;33.72
59154;BME280;44935;48.944;9.418;2022-07-23T01:30:06;98590.34;;;26.45;33.88
59154;BME280;44935;48.944;9.418;2022-07-23T01:32:33;98592.64;;;26.25;33.81
59154;BME280;44935;48.944;9.418;2022-07-23T01:35:00;98590.55;;;25.52;34.57
59154;BME280;44935;48.944;9.418;2022-07-23T01:37:27;98580.39;;;25.99;34.33
59154;BME280;44935;48.944;9.418;2022-07-23T01:39:54;98581.00;;;26.02;33.96
59154;BME280;44935;48.944;9.418;2022-07-23T01:42:21;98576.60;;;26.70;33.56
59154;BME280;44935;48.944;9.418;2022-07-23T01:44:48;98578.50;;;26.48;34.21
59154;BME280;44935;48.944;9.418;2022-07-23T01:47:15;98585.93;;;26.62;33.74
59154;BME280;44935;48.944;9.418;2022-07-23T01:49:42;98592.61;;;24.99;35.03
59154;BME280;44935;48.944;9.418;2022-07-23T01:52:09;98585.43;;;26.13;34.49
59154;BME280;44935;48.944;9.418;2022-07-23T01:54:36;98587.13;;;26.32;35.35
59154;BME280;44935;48.944;9.418;2022-07-23T01:57:04;98589.05;;;25.73;35.59
59154;BME280;44935;48.944;9.418;2022-07-23T01:59:32;98580.94;;;26.20;36.15
59154;BME280;44935;48.944;9.418;2022-07-23T02:01:59;98580.25;;;26.11;35.02
59154;BME280;44935;48.944;9.418;2022-07-23T02:04:26;98574.01;;;25.55;35.40
59154;BME280;44935;48.944;9.418;2022-07-23T02:06:53;98579.82;;;25.95;35.29
59154;BME280;44935;48.944;9.418;2022-07-23T02:09:20;98587.37;;;26.72;34.29
59154;BME280;44935;48.944;9.418;2022-07-23T02:11:48;98591.52;;;26.70;34.13
59154;BME280;44935;48.944;9.418;2022-07-23T02:14:15;98591.06;;;26.37;34.46
59154;BME280;44935;48.944;9.418;2022-07-23T02:16:42;98588.63;;;26.15;35.06
59154;BME280;44935;48.944;9.418;2022-07-23T02:19:09;98587.13;;;24.74;36.42
59154;BME280;44935;48.944;9.418;2022-07-23T02:21:36;98581.61;;;26.42;33.82
59154;BME280;44935;48.944;9.418;2022-07-23T02:24:04;98591.11;;;26.42;34.95
59154;BME280;44935;48.944;9.418;2022-07-23T02:26:31;98594.28;;;26.27;34.63
59154;BME280;44935;48.944;9.418;2022-07-23T02:28:58;98598.42;;;26.65;35.04
59154;BME280;44935;48.944;9.418;2022-07-23T02:31:25;98609.58;;;25.91;36.09
59154;BME280;44935;48.944;9.418;2022-07-23T02:33:52;98615.13;;;25.27;37.42
59154;BME280;44935;48.944;9.418;2022-07-23T02:36:19;98620.95;;;24.47;38.50
59154;BME280;44935;48.944;9.418;2022-07-23T02:38:45;98621.42;;;24.11;38.96
59154;BME280;44935;48.944;9.418;2022-07-23T02:41:13;98622.48;;;23.79;39.23
59154;BME280;44935;48.944;9.418;2022-07-23T02:43:39;98623.26;;;23.41;40.44
59154;BME280;44935;48.944;9.418;2022-07-23T02:46:06;98628.73;;;24.07;39.32
59154;BME280;44935;48.944;9.418;2022-07-23T02:48:33;98635.62;;;24.10;39.85
59154;BME280;44935;48.944;9.418;2022-07-23T02:51:00;98639.11;;;23.83;40.55
59154;BME280;44935;48.944;9.418;2022-07-23T02:53:27;98642.14;;;23.56;40.87
59154;BME280;44935;48.944;9.418;2022-07-23T02:55:54;98644.52;;;23.69;40.27
59154;BME280;44935;48.944;9.418;2022-07-23T02:58:21;98647.68;;;23.52;40.37
59154;BME280;44935;48.944;9.418;2022-07-23T03:00:48;98653.77;;;23.05;41.85
59154;BME280;44935;48.944;9.418;2022-07-23T03:03:15;98658.25;;;22.91;41.62
59154;BME280;44935;48.944;9.418;2022-07-23T03:05:42;98657.80;;;23.48;41.42
59154;BME280;44935;48.944;9.418;2022-07-23T03:08:09;98657.54;;;23.47;41.13
59154;BME280;44935;48.944;9.418;2022-07-23T03:10:36;98661.01;;;22.96;41.41
59154;BME280;44935;48.944;9.418;2022-07-23T03:13:03;98666.65;;;23.22;41.38
59154;BME280;44935;48.944;9.418;2022-07-23T03:15:29;98667.27;;;23.10;40.92
59154;BME280;44935;48.944;9.418;2022-07-23T03:17:56;98667.46;;;23.38;41.45
59154;BME280;44935;48.944;9.418;2022-07-23T03:20:23;98668.04;;;22.93;41.82
59154;BME280;44935;48.944;9.418;2022-07-23T03:22:50;98675.37;;;22.70;42.06
59154;BME280;44935;48.944;9.418;2022-07-23T03:25:17;98672.61;;;22.88;41.60
59154;BME280;44935;48.944;9.418;2022-07-23T03:27:44;98673.83;;;22.87;41.51
59154;BME280;44935;48.944;9.418;2022-07-23T03:30:11;98671.43;;;22.83;41.49
59154;BME280;44935;48.944;9.418;2022-07-23T03:32:39;98667.88;;;22.83;40.84
59154;BME280;44935;48.944;9.418;2022-07-23T03:35:07;98669.15;;;23.50;40.31
59154;BME280;44935;48.944;9.418;2022-07-23T03:37:34;98669.09;;;23.33;39.97
59154;BME280;44935;48.944;9.418;2022-07-23T03:40:00;98669.64;;;23.39;39.91
59154;BME280;44935;48.944;9.418;2022-07-23T03:42:27;98669.92;;;23.24;40.70
59154;BME280;44935;48.944;9.418;2022-07-23T03:44:54;98671.62;;;23.43;40.04
59154;BME280;44935;48.944;9.418;2022-07-23T03:47:21;98671.21;;;23.23;39.63
59154;BME280;44935;48.944;9.418;2022-07-23T03:49:48;98672.82;;;23.59;39.55
59154;BME280;44935;48.944;9.418;2022-07-23T03:52:15;98675.70;;;23.67;39.71
59154;BME280;44935;48.944;9.418;2022-07-23T03:54:42;98679.26;;;23.72;39.01
59154;BME280;44935;48.944;9.418;2022-07-23T03:57:10;98677.93;;;24.28;39.07
59154;BME280;44935;48.944;9.418;2022-07-23T03:59:37;98681.53;;;23.17;40.81
59154;BME280;44935;48.944;9.418;2022-07-23T04:02:03;98683.39;;;22.06;41.90
59154;BME280;44935;48.944;9.418;2022-07-23T04:04:30;98682.21;;;21.27;43.82
59154;BME280;44935;48.944;9.418;2022-07-23T04:06:57;98683.52;;;22.93;41.38
59154;BME280;44935;48.944;9.418;2022-07-23T04:09:24;98677.64;;;21.22;44.14
59154;BME280;44935;48.944;9.418;2022-07-23T04:11:51;98677.37;;;22.30;42.61
59154;BME280;44935;48.944;9.418;2022-07-23T04:14:18;98676.46;;;23.99;39.96
59154;BME280;44935;48.944;9.418;2022-07-23T04:16:45;98682.01;;;23.28;40.97
59154;BME280;44935;48.944;9.418;2022-07-23T04:19:12;98680.65;;;24.25;39.51
59154;BME280;44935;48.944;9.418;2022-07-23T04:21:39;98682.34;;;23.10;40.57
59154;BME280;44935;48.944;9.418;2022-07-23T04:24:06;98680.83;;;24.15;39.13
59154;BME280;44935;48.944;9.418;2022-07-23T04:26:33;98688.86;;;24.67;38.72
59154;BME280;44935;48.944;9.418;2022-07-23T04:29:00;98689.28;;;24.59;38.72
59154;BME280;44935;48.944;9.418;2022-07-23T04:31:27;98696.05;;;24.82;38.87
59154;BME280;44935;48.944;9.418;2022-07-23T04:33:54;98693.25;;;24.89;38.53
59154;BME280;44935;48.944;9.418;2022-07-23T04:36:20;98688.53;;;22.74;42.72
59154;BME280;44935;48.944;9.418;2022-07-23T04:38:47;98682.97;;;24.00;41.50
59154;BME280;44935;48.944;9.418;2022-07-23T04:41:14;98684.32;;;23.58;42.37
59154;BME280;44935;48.944;9.418;2022-07-23T04:43:41;98693.26;;;23.44;41.87
59154;BME280;44935;48.944;9.418;2022-07-23T04:46:08;98697.44;;;23.36;42.37
59154;BME280;44935;48.944;9.418;2022-07-23T04:48:35;98697.48;;;23.61;42.35
59154;BME280;44935;48.944;9.418;2022-07-23T04:51:02;98695.12;;;23.73;41.94
59154;BME280;44935;48.944;9.418;2022-07-23T04:53:29;98690.54;;;23.85;41.33
59154;BME280;44935;48.944;9.418;2022-07-23T04:55:56;98691.60;;;23.69;42.13
59154;BME280;44935;48.944;9.418;2022-07-23T04:58:23;98695.35;;;23.72;41.38
59154;BME280;44935;48.944;9.418;2022-07-23T05:00:50;98691.82;;;23.35;42.80
59154;BME280;44935;48.944;9.418;2022-07-23T05:03:17;98692.54;;;24.97;40.40
59154;BME280;44935;48.944;9.418;2022-07-23T05:05:44;98697.63;;;24.47;40.76
59154;BME280;44935;48.944;9.418;2022-07-23T05:08:11;98703.42;;;23.95;42.17
59154;BME280;44935;48.944;9.418;2022-07-23T05:10:38;98702.75;;;23.63;42.39
59154;BME280;44935;48.944;9.418;2022-07-23T05:13:05;98707.63;;;24.04;42.58
59154;BME280;44935;48.944;9.418;2022-07-23T05:15:32;98712.29;;;24.19;41.49
59154;BME280;44935;48.944;9.418;2022-07-23T05:17:59;98722.78;;;24.21;41.26
59154;BME280;44935;48.944;9.418;2022-07-23T05:20:26;98723.28;;;24.58;40.40
59154;BME280;44935;48.944;9.418;2022-07-23T05:22:53;98720.96;;;25.07;40.28
59154;BME280;44935;48.944;9.418;2022-07-23T05:25:20;98718.92;;;24.00;41.26
59154;BME280;44935;48.944;9.418;2022-07-23T05:27:47;98714.68;;;24.25;40.73
59154;BME280;44935;48.944;9.418;2022-07-23T05:30:14;98722.90;;;24.05;40.60
59154;BME280;44935;48.944;9.418;2022-07-23T05:32:41;98724.04;;;22.67;42.85
59154;BME280;44935;48.944;9.418;2022-07-23T05:35:08;98730.16;;;24.62;40.07
59154;BME280;44935;48.944;9.418;2022-07-23T05:37:36;98733.79;;;25.25;38.98
59154;BME280;44935;48.944;9.418;2022-07-23T05:40:03;98736.24;;;24.65;39.07
59154;BME280;44935;48.944;9.418;2022-07-23T05:42:31;98743.52;;;24.75;39.28
59154;BME280;44935;48.944;9.418;2022-07-23T05:44:58;98742.35;;;24.73;39.27
59154;BME280;44935;48.944;9.418;2022-07-23T05:47:25;98743.08;;;25.23;38.87
59154;BME280;44935;48.944;9.418;2022-07-23T05:49:52;98741.65;;;25.82;38.79
59154;BME280;44935;48.944;9.418;2022-07-23T05:52:19;98746.53;;;25.95;38.57
59154;BME280;44935;48.944;9.418;2022-07-23T05:54:45;98749.38;;;25.25;38.35
59154;BME280;44935;48.944;9.418;2022-07-23T05:57:12;98758.68;;;24.88;39.62
59154;BME280;44935;48.944;9.418;2022-07-23T05:59:39;98767.29;;;24.87;40.02
59154;BME280;44935;48.944;9.418;2022-07-23T06:02:06;98769.27;;;25.32;39.98
59154;BME280;44935;48.944;9.418;2022-07-23T06:04:33;98771.79;;;25.44;39.86
59154;BME280;44935;48.944;9.418;2022-07-23T06:07:00;98777.66;;;26.00;39.88
59154;BME280;44935;48.944;9.418;2022-07-23T06:09:27;98783.27;;;26.10;39.90
59154;BME280;44935;48.944;9.418;2022-07-23T06:11:54;98790.27;;;25.68;39.69
59154;BME280;44935;48.944;9.418;2022-07-23T06:14:21;98790.96;;;24.71;40.81
59154;BME280;44935;48.944;9.418;2022-07-23T06:16:48;98791.32;;;24.21;43.18
59154;BME280;44935;48.944;9.418;2022-07-23T06:19:15;98792.71;;;24.25;42.54
59154;BME280;44935;48.944;9.418;2022-07-23T06:21:42;98789.75;;;24.96;41.64
59154;BME280;44935;48.944;9.418;2022-07-23T06:24:09;98787.40;;;24.73;42.02
59154;BME280;44935;48.944;9.418;2022-07-23T06:26:36;98777.80;;;24.59;40.85
59154;BME280;44935;48.944;9.418;2022-07-23T06:29:03;98774.54;;;24.39;42.44
59154;BME280;44935;48.944;9.418;2022-07-23T06:31:29;98771.07;;;23.75;43.13
59154;BME280;44935;48.944;9.418;2022-07-23T06:33:56;98763.38;;;22.50;45.11
59154;BME280;44935;48.944;9.418;2022-07-23T06:36:23;98749.42;;;22.08;46.66
59154;BME280;44935;48.944;9.418;2022-07-23T06:38:50;98738.81;;;21.53;48.31
59154;BME280;44935;48.944;9.418;2022-07-23T06:41:17;98740.35;;;23.04;43.29
59154;BME280;44935;48.944;9.418;2022-07-23T06:43:44;98751.49;;;24.25;41.11
59154;BME280;44935;48.944;9.418;2022-07-23T06:46:11;98759.91;;;24.05;40.78
59154;BME280;44935;48.944;9.418;2022-07-23T06:48:38;98761.80;;;24.64;40.94
59154;BME280;44935;48.944;9.418;2022-07-23T06:51:05;98762.12;;;23.02;43.55
59154;BME280;44935;48.944;9.418;2022-07-23T06:53:32;98763.54;;;24.01;41.05
59154;BME280;44935;48.944;9.418;2022-07-23T06:55:59;98777.19;;;24.28;40.55
59154;BME280;44935;48.944;9.418;2022-07-23T06:58:25;98782.09;;;23.64;42.38
59154;BME280;44935;48.944;9.418;2022-07-23T07:00:52;98775.06;;;22.59;44.37
59154;BME280;44935;48.944;9.418;2022-07-23T07:03:19;98784.70;;;23.32;43.92
59154;BME280;44935;48.944;9.418;2022-07-23T07:05:46;98795.76;;;22.97;44.59
59154;BME280;44935;48.944;9.418;2022-07-23T07:08:13;98804.95;;;23.23;44.53
59154;BME280;44935;48.944;9.418;2022-07-23T07:10:40;98814.64;;;23.75;43.35
59154;BME280;44935;48.944;9.418;2022-07-23T07:13:07;98824.20;;;23.83;42.91
59154;BME280;44935;48.944;9.418;2022-07-23T07:15:34;98824.44;;;23.22;44.27
59154;BME280;44935;48.944;9.418;2022-07-23T07:18:02;98827.22;;;24.49;41.93
59154;BME280;44935;48.944;9.418;2022-07-23T07:20:28;98834.93;;;24.58;40.86
59154;BME280;44935;48.944;9.418;2022-07-23T07:22:55;98860.35;;;24.35;42.52
59154;BME280;44935;48.944;9.418;2022-07-23T07:25:22;98859.55;;;23.31;44.13
59154;BME280;44935;48.944;9.418;2022-07-23T07:27:49;98866.87;;;23.69;43.70
59154;BME280;44935;48.944;9.418;2022-07-23T07:30:16;98862.04;;;23.41;44.76
59154;BME280;44935;48.944;9.418;2022-07-23T07:32:43;98840.17;;;22.71;47.42
59154;BME280;44935;48.944;9.418;2022-07-23T07:35:10;98831.52;;;20.27;53.76
59154;BME280;44935;48.944;9.418;2022-07-23T07:37:37;98838.25;;;21.25;52.90
59154;BME280;44935;48.944;9.418;2022-07-23T07:40:04;98846.95;;;22.14;50.79
59154;BME280;44935;48.944;9.418;2022-07-23T07:42:32;98837.85;;;20.32;54.91
59154;BME280;44935;48.944;9.418;2022-07-23T07:44:58;98819.48;;;19.22;57.76
59154;BME280;44935;48.944;9.418;2022-07-23T07:47:25;98794.58;;;20.21;54.91
59154;BME280;44935;48.944;9.418;2022-07-23T07:49:52;98795.41;;;22.07;51.32
59154;BME280;44935;48.944;9.418;2022-07-23T07:52:20;98812.81;;;22.65;49.67
59154;BME280;44935;48.944;9.418;2022-07-23T07:54:47;98821.97;;;22.91;48.98
59154;BME280;44935;48.944;9.418;2022-07-23T07:57:14;98816.55;;;19.83;55.87
59154;BME280;44935;48.944;9.418;2022-07-23T07:59:41;98814.42;;;20.93;55.02
59154;BME280;44935;48.944;9.418;2022-07-23T08:02:07;98821.90;;;22.89;50.87
59154;BME280;44935;48.944;9.418;2022-07-23T08:04:34;98832.07;;;22.71;49.61
59154;BME280;44935;48.944;9.418;2022-07-23T08:07:01;98838.69;;;22.82;49.53
59154;BME280;44935;48.944;9.418;2022-07-23T08:09:29;98854.35;;;22.08;51.36
59154;BME280;44935;48.944;9.418;2022-07-23T08:11:56;98857.79;;;21.39;53.46
59154;BME280;44935;48.944;9.418;2022-07-23T08:14:23;98858.52;;;21.91;52.30
59154;BME280;44935;48.944;9.418;2022-07-23T08:16:50;98863.74;;;22.11;51.62
59154;BME280;44935;48.944;9.418;2022-07-23T08:19:17;98869.10;;;22.23;50.31
59154;BME280;44935;48.944;9.418;2022-07-23T08:21:43;98877.61;;;22.08;50.59
59154;BME280;44935;48.944;9.418;2022-07-23T08:24:10;98887.93;;;22.25;49.77
59154;BME280;44935;48.944;9.418;2022-07-23T08:26:37;98880.80;;;22.29;49.43
59154;BME280;44935;48.944;9.418;2022-07-23T08:29:04;98873.30;;;22.78;47.90
59154;BME280;44935;48.944;9.418;2022-07-23T08:31:31;98871.26;;;23.24;47.90
59154;BME280;44935;48.944;9.418;2022-07-23T08:33:58;98869.55;;;23.93;46.47
59154;BME280;44935;48.944;9.418;2022-07-23T08:36:26;98876.35;;;23.32;47.15
59154;BME280;44935;48.944;9.418;2022-07-23T08:38:53;98885.09;;;22.95;48.17
59154;BME280;44935;48.944;9.418;2022-07-23T08:41:20;98879.77;;;23.13;47.71
59154;BME280;44935;48.944;9.418;2022-07-23T08:43:46;98871.54;;;22.96;47.61
59154;BME280;44935;48.944;9.418;2022-07-23T08:46:14;98871.69;;;23.11;48.44
59154;BME280;44935;48.944;9.418;2022-07-23T08:48:41;98872.00;;;23.13;47.70
59154;BME280;44935;48.944;9.418;2022-07-23T08:51:09;98868.02;;;23.30;47.63
59154;BME280;44935;48.944;9.418;2022-07-23T08:53:36;98865.02;;;23.10;47.07
59154;BME280;44935;48.944;9.418;2022-07-23T08:56:04;98870.38;;;23.44;46.81
59154;BME280;44935;48.944;9.418;2022-07-23T08:58:32;98874.97;;;23.31;47.36
59154;BME280;44935;48.944;9.418;2022-07-23T09:01:00;98875.22;;;23.24;46.90
59154;BME280;44935;48.944;9.418;2022-07-23T09:03:31;98877.89;;;23.63;46.98
59154;BME280;44935;48.944;9.418;2022-07-23T09:05:59;98879.54;;;22.67;47.68
59154;BME280;44935;48.944;9.418;2022-07-23T09:08:34;98867.36;;;23.96;44.53
59154;BME280;44935;48.944;9.418;2022-07-23T09:11:03;98863.98;;;23.63;45.84
59154;BME280;44935;48.944;9.418;2022-07-23T09:13:33;98862.95;;;23.89;44.63
59154;BME280;44935;48.944;9.418;2022-07-23T09:16:04;98863.46;;;23.51;44.26
59154;BME280;44935;48.944;9.418;2022-07-23T09:18:33;98864.58;;;22.19;47.62
59154;BME280;44935;48.944;9.418;2022-07-23T09:21:09;98856.07;;;23.96;44.94
59154;BME280;44935;48.944;9.418;2022-07-23T09:23:38;98853.16;;;25.01;43.10
59154;BME280;44935;48.944;9.418;2022-07-23T09:26:19;98854.50;;;24.06;42.81
59154;BME280;44935;48.944;9.418;2022-07-23T09:28:53;98855.94;;;24.61;40.91
59154;BME280;44935;48.944;9.418;2022-07-23T09:31:20;98854.12;;;25.52;39.42
59154;BME280;44935;48.944;9.418;2022-07-23T09:33:48;98857.14;;;22.26;44.54
59154;BME280;44935;48.944;9.418;2022-07-23T09:36:15;98860.80;;;24.06;41.26
59154;BME280;44935;48.944;9.418;2022-07-23T09:38:50;98858.95;;;22.55;44.26
59154;BME280;44935;48.944;9.418;2022-07-23T09:41:17;98863.33;;;21.33;46.94
59154;BME280;44935;48.944;9.418;2022-07-23T09:43:44;98867.93;;;21.69;47.25
59154;BME280;44935;48.944;9.418;2022-07-23T09:46:20;98861.59;;;23.50;43.19
59154;BME280;44935;48.944;9.418;2022-07-23T09:48:48;98856.09;;;24.43;41.34
59154;BME280;44935;48.944;9.418;2022-07-23T09:51:14;98850.29;;;25.37;40.37
59154;BME280;44935;48.944;9.418;2022-07-23T09:53:41;98850.84;;;25.79;38.72
59154;BME280;44935;48.944;9.418;2022-07-23T09:56:09;98854.67;;;23.71;42.16
59154;BME280;44935;48.944;9.418;2022-07-23T09:58:40;98855.82;;;25.42;39.57
59154;BME280;44935;48.944;9.418;2022-07-23T10:01:06;98864.60;;;24.75;40.78
59154;BME280;44935;48.944;9.418;2022-07-23T10:03:34;98855.72;;;25.75;39.13
59154;BME280;44935;48.944;9.418;2022-07-23T10:06:00;98853.11;;;25.18;39.43
59154;BME280;44935;48.944;9.418;2022-07-23T10:08:28;98852.22;;;24.69;41.44
59154;BME280;44935;48.944;9.418;2022-07-23T10:10:57;98850.85;;;24.88;40.53
59154;BME280;44935;48.944;9.418;2022-07-23T10:13:25;98849.07;;;24.97;40.41
59154;BME280;44935;48.944;9.418;2022-07-23T10:15:52;98849.41;;;24.11;42.15
59154;BME280;44935;48.944;9.418;2022-07-23T10:18:18;98848.76;;;25.22;40.80
59154;BME280;44935;48.944;9.418;2022-07-23T10:20:47;98848.21;;;24.68;41.01
59154;BME280;44935;48.944;9.418;2022-07-23T10:23:20;98850.58;;;24.12;42.79
59154;BME280;44935;48.944;9.418;2022-07-23T10:25:58;98846.88;;;25.26;41.38
59154;BME280;44935;48.944;9.418;2022-07-23T10:28:55;98848.03;;;24.84;42.08
59154;BME280;44935;48.944;9.418;2022-07-23T10:31:34;98844.59;;;23.52;43.35
59154;BME280;44935;48.944;9.418;2022-07-23T10:34:14;98840.36;;;25.25;40.66
59154;BME280;44935;48.944;9.418;2022-07-23T10:36:50;98844.22;;;25.78;39.18
59154;BME280;44935;48.944;9.418;2022-07-23T10:39:22;98841.35;;;25.45;38.76
59154;BME280;44935;48.944;9.418;2022-07-23T10:41:51;98840.15;;;24.47;41.11
59154;BME280;44935;48.944;9.418;2022-07-23T10:44:20;98839.90;;;25.10;40.49
59154;BME280;44935;48.944;9.418;2022-07-23T10:46:57;98842.88;;;24.96;41.41
59154;BME280;44935;48.944;9.418;2022-07-23T10:49:26;98842.51;;;25.31;39.22
59154;BME280;44935;48.944;9.418;2022-07-23T10:52:26;98845.60;;;24.64;39.50
59154;BME280;44935;48.944;9.418;2022-07-23T10:54:55;98845.17;;;24.05;40.60
59154;BME280;44935;48.944;9.418;2022-07-23T10:57:24;98842.17;;;25.38;39.75
59154;BME280;44935;48.944;9.418;2022-07-23T11:00:24;98843.70;;;26.24;39.08
59154;BME280;44935;48.944;9.418;2022-07-23T11:02:52;98850.06;;;26.53;37.28
59154;BME280;44935;48.944;9.418;2022-07-23T11:05:21;98848.89;;;26.13;37.55
59154;BME280;44935;48.944;9.418;2022-07-23T11:08:21;98842.17;;;26.29;35.80
59154;BME280;44935;48.944;9.418;2022-07-23T11:10:52;98841.42;;;26.51;35.40
59154;BME280;44935;48.944;9.418;2022-07-23T11:13:50;98845.92;;;26.02;35.48
59154;BME280;44935;48.944;9.418;2022-07-23T11:16:20;98845.83;;;26.75;33.64
59154;BME280;44935;48.944;9.418;2022-07-23T11:19:20;98844.99;;;25.79;34.31
59154;BME280;44935;48.944;9.418;2022-07-23T11:21:49;98839.74;;;27.29;34.32
59154;BME280;44935;48.944;9.418;2022-07-23T11:24:20;98840.58;;;26.86;33.59
59154;BME280;44935;48.944;9.418;2022-07-23T11:26:52;98839.18;;;26.52;34.06
59154;BME280;44935;48.944;9.418;2022-07-23T11:29:50;98838.36;;;26.62;34.38
59154;BME280;44935;48.944;9.418;2022-07-23T11:32:26;98833.59;;;26.07;34.73
59154;BME280;44935;48.944;9.418;2022-07-23T11:34:54;98826.16;;;26.35;35.08
59154;BME280;44935;48.944;9.418;2022-07-23T11:37:33;98823.05;;;25.36;35.58
59154;BME280;44935;48.944;9.418;2022-07-23T11:40:03;98821.64;;;25.64;36.27
59154;BME280;44935;48.944;9.418;2022-07-23T11:42:31;98825.26;;;25.96;36.35
59154;BME280;44935;48.944;9.418;2022-07-23T11:44:58;98824.44;;;25.35;35.70
59154;BME280;44935;48.944;9.418;2022-07-23T11:47:26;98827.44;;;26.71;34.13
59154;BME280;44935;48.944;9.418;2022-07-23T11:49:55;98833.11;;;26.71;34.22
59154;BME280;44935;48.944;9.418;2022-07-23T11:52:22;98828.55;;;25.75;35.89
59154;BME280;44935;48.944;9.418;2022-07-23T11:54:51;98827.66;;;25.45;37.24
59154;BME280;44935;48.944;9.418;2022-07-23T11:57:21;98826.23;;;25.16;37.51
59154;BME280;44935;48.944;9.418;2022-07-23T11:59:54;98825.87;;;25.81;36.86
59154;BME280;44935;48.944;9.418;2022-07-23T12:02:22;98823.08;;;25.22;37.83
59154;BME280;44935;48.944;9.418;2022-07-23T12:04:51;98824.20;;;25.29;38.66
59154;BME280;44935;48.944;9.418;2022-07-23T12:07:28;98821.09;;;26.09;37.06
59154;BME280;44935;48.944;9.418;2022-07-23T12:09:56;98814.85;;;27.85;35.07
59154;BME280;44935;48.944;9.418;2022-07-23T12:12:24;98813.68;;;27.49;34.49
59154;BME280;44935;48.944;9.418;2022-07-23T12:14:54;98809.01;;;27.66;35.63
59154;BME280;44935;48.944;9.418;2022-07-23T12:17:27;98807.68;;;26.88;36.28
59154;BME280;44935;48.944;9.418;2022-07-23T12:19:55;98808.45;;;26.66;35.80
59154;BME280;44935;48.944;9.418;2022-07-23T12:22:23;98809.22;;;27.42;34.74
59154;BME280;44935;48.944;9.418;2022-07-23T12:24:56;98805.23;;;27.00;35.01
59154;BME280;44935;48.944;9.418;2022-07-23T12:27:24;98808.39;;;26.58;35.52
59154;BME280;44935;48.944;9.418;2022-07-23T12:29:51;98806.55;;;26.77;35.92
59154;BME280;44935;48.944;9.418;2022-07-23T12:32:20;98805.43;;;27.00;35.87
59154;BME280;44935;48.944;9.418;2022-07-23T12:34:49;98804.50;;;25.84;37.33
59154;BME280;44935;48.944;9.418;2022-07-23T12:37:33;98799.46;;;27.20;35.42
59154;BME280;44935;48.944;9.418;2022-07-23T12:40:33;98810.46;;;26.22;36.46
59154;BME280;44935;48.944;9.418;2022-07-23T12:43:03;98814.82;;;26.54;36.79
59154;BME280;44935;48.944;9.418;2022-07-23T12:45:44;98815.49;;;27.06;35.29
59154;BME280;44935;48.944;9.418;2022-07-23T12:48:18;98814.27;;;26.84;35.07
59154;BME280;44935;48.944;9.418;2022-07-23T12:50:51;98810.60;;;25.64;37.02
59154;BME280;44935;48.944;9.418;2022-07-23T12:53:20;98812.65;;;26.07;36.65
59154;BME280;44935;48.944;9.418;2022-07-23T12:55:48;98815.14;;;26.44;36.19
59154;BME280;44935;48.944;9.418;2022-07-23T12:58:18;98815.89;;;26.73;35.64
59154;BME280;44935;48.944;9.418;2022-07-23T13:01:03;98815.91;;;26.82;35.27
59154;BME280;44935;48.944;9.418;2022-07-23T13:03:33;98810.94;;;26.83;35.01
59154;BME280;44935;48.944;9.418;2022-07-23T13:06:01;98805.17;;;27.68;33.94
59154;BME280;44935;48.944;9.418;2022-07-23T13:08:30;98803.32;;;27.33;33.94